sensor_id;sensor_type;location;lat;lon;timestamp;temperature;humidity
23079;DHT22;11707;50.830;4.364;2023-01-30T11:52:12;8.30;99.90
23079;DHT22;11707;50.830;4.364;2023-01-30T11:54:42;8.60;99.90
23079;DHT22;11707;50.830;4.364;2023-01-30T11:57:12;8.50;99.90
23079;DHT22;11707;50.830;4.364;2023-01-30T11:59:46;8.50;99.90
23079;DHT22;11707;50.830;4.364;2023-01-30T12:02:51;8.50;99.90
23079;DHT22;11707;50.830;4.364;2023-01-30T12:07:46;8.60;99.90
23079;DHT22;11707;50.830;4.364;2023-01-30T12:10:32;8.60;99.90
23079;DHT22;11707;50.830;4.364;2023-01-30T12:13:23;8.60;99.90
23079;DHT22;11707;50.830;4.364;2023-01-30T12:16:03;8.60;99.90
23079;DHT22;11707;50.830;4.364;2023-01-30T12:18:36;8.60;99.90
23079;DHT22;11707;50.830;4.364;2023-01-30T12:21:12;8.70;99.90
23079;DHT22;11707;50.830;4.364;2023-01-30T12:24:00;8.70;99.90
23079;DHT22;11707;50.830;4.364;2023-01-30T12:26:34;8.70;99.90
23079;DHT22;11707;50.830;4.364;2023-01-30T12:31:49;8.70;99.90
23079;DHT22;11707;50.830;4.364;2023-01-30T12:34:19;8.60;99.90
23079;DHT22;11707;50.830;4.364;2023-01-30T12:42:19;8.50;99.90
23079;DHT22;11707;50.830;4.364;2023-01-30T12:45:00;8.50;99.90
23079;DHT22;11707;50.830;4.364;2023-01-30T12:50:48;8.40;99.90
23079;DHT22;11707;50.830;4.364;2023-01-30T13:01:27;8.50;99.90
23079;DHT22;11707;50.830;4.364;2023-01-30T13:12:30;8.60;99.90
23079;DHT22;11707;50.830;4.364;2023-01-30T13:15:19;8.60;99.90
23079;DHT22;11707;50.830;4.364;2023-01-30T13:28:30;8.50;99.90
23079;DHT22;11707;50.830;4.364;2023-01-30T13:30:57;8.50;99.90
23079;DHT22;11707;50.830;4.364;2023-01-30T13:33:29;8.50;99.90
23079;DHT22;11707;50.830;4.364;2023-01-30T13:36:26;8.60;99.90
23079;DHT22;11707;50.830;4.364;2023-01-30T13:39:01;8.60;99.90
23079;DHT22;11707;50.830;4.364;2023-01-30T13:41:32;8.60;99.90
23079;DHT22;11707;50.830;4.364;2023-01-30T13:44:02;8.60;99.90
23079;DHT22;11707;50.830;4.364;2023-01-30T13:46:31;8.60;99.90
23079;DHT22;11707;50.830;4.364;2023-01-30T13:52:09;8.50;99.90
23079;DHT22;11707;50.830;4.364;2023-01-30T14:00:32;8.60;99.90
23079;DHT22;11707;50.830;4.364;2023-01-30T14:03:23;8.60;99.90
23079;DHT22;11707;50.830;4.364;2023-01-30T14:08:27;8.60;99.90
23079;DHT22;11707;50.830;4.364;2023-01-30T14:10:55;8.50;99.90
23079;DHT22;11707;50.830;4.364;2023-01-30T14:13:23;8.40;99.90
23079;DHT22;11707;50.830;4.364;2023-01-30T14:15:58;8.50;99.90
23079;DHT22;11707;50.830;4.364;2023-01-30T14:18:35;8.50;99.90
23079;DHT22;11707;50.830;4.364;2023-01-30T14:21:18;8.40;99.90
23079;DHT22;11707;50.830;4.364;2023-01-30T14:24:01;8.40;99.90
23079;DHT22;11707;50.830;4.364;2023-01-30T14:45:59;8.40;99.90
23079;DHT22;11707;50.830;4.364;2023-01-30T14:54:02;8.50;99.90
23079;DHT22;11707;50.830;4.364;2023-01-30T14:59:56;8.40;99.90
23079;DHT22;11707;50.830;4.364;2023-01-30T15:02:31;8.40;99.90
23079;DHT22;11707;50.830;4.364;2023-01-30T15:05:14;8.50;99.90
23079;DHT22;11707;50.830;4.364;2023-01-30T15:07:56;8.60;99.90
23079;DHT22;11707;50.830;4.364;2023-01-30T15:27:44;8.30;99.90
23079;DHT22;11707;50.830;4.364;2023-01-30T15:32:44;8.20;99.90
23079;DHT22;11707;50.830;4.364;2023-01-30T15:37:45;8.20;99.90
23079;DHT22;11707;50.830;4.364;2023-01-30T15:42:47;8.40;99.90
23079;DHT22;11707;50.830;4.364;2023-01-30T15:50:35;8.50;99.90
23079;DHT22;11707;50.830;4.364;2023-01-30T15:53:02;8.40;99.90
23079;DHT22;11707;50.830;4.364;2023-01-30T15:55:34;8.30;99.90
23079;DHT22;11707;50.830;4.364;2023-01-30T15:58:08;8.30;99.90
23079;DHT22;11707;50.830;4.364;2023-01-30T16:00:49;8.30;99.90
23079;DHT22;11707;50.830;4.364;2023-01-30T16:03:25;8.20;99.90
23079;DHT22;11707;50.830;4.364;2023-01-30T16:05:53;8.20;99.90
23079;DHT22;11707;50.830;4.364;2023-01-30T16:08:25;8.20;99.90
23079;DHT22;11707;50.830;4.364;2023-01-30T16:10:51;8.20;99.90
23079;DHT22;11707;50.830;4.364;2023-01-30T16:13:21;8.10;99.90
23079;DHT22;11707;50.830;4.364;2023-01-30T16:16:14;8.10;99.90
23079;DHT22;11707;50.830;4.364;2023-01-30T16:18:51;8.10;99.90
23079;DHT22;11707;50.830;4.364;2023-01-30T16:21:33;8.20;99.90
23079;DHT22;11707;50.830;4.364;2023-01-30T16:24:05;8.20;99.90
23079;DHT22;11707;50.830;4.364;2023-01-30T16:26:34;8.30;99.90
23079;DHT22;11707;50.830;4.364;2023-01-30T16:29:05;8.30;99.90
23079;DHT22;11707;50.830;4.364;2023-01-30T16:31:32;8.30;99.90
23079;DHT22;11707;50.830;4.364;2023-01-30T16:33:59;8.30;99.90
23079;DHT22;11707;50.830;4.364;2023-01-30T16:38:54;8.30;99.90
23079;DHT22;11707;50.830;4.364;2023-01-30T16:41:38;8.30;99.90
23079;DHT22;11707;50.830;4.364;2023-01-30T16:44:26;8.20;99.90
23079;DHT22;11707;50.830;4.364;2023-01-30T16:47:06;8.20;99.90
23079;DHT22;11707;50.830;4.364;2023-01-30T16:49:47;8.20;99.90
23079;DHT22;11707;50.830;4.364;2023-01-30T16:55:01;8.20;99.90
23079;DHT22;11707;50.830;4.364;2023-01-30T16:57:40;8.20;99.90
23079;DHT22;11707;50.830;4.364;2023-01-30T17:00:37;8.20;99.90
23079;DHT22;11707;50.830;4.364;2023-01-30T17:06:09;8.40;99.90
23079;DHT22;11707;50.830;4.364;2023-01-30T17:08:54;8.40;99.90
23079;DHT22;11707;50.830;4.364;2023-01-30T17:11:39;8.40;99.90
23079;DHT22;11707;50.830;4.364;2023-01-30T17:14:21;8.30;99.90
23079;DHT22;11707;50.830;4.364;2023-01-30T17:17:07;8.50;99.90
23079;DHT22;11707;50.830;4.364;2023-01-30T17:19:33;8.40;99.90
23079;DHT22;11707;50.830;4.364;2023-01-30T17:22:02;8.30;99.90
23079;DHT22;11707;50.830;4.364;2023-01-30T17:24:29;8.20;99.90
23079;DHT22;11707;50.830;4.364;2023-01-30T17:27:00;8.20;99.90
23079;DHT22;11707;50.830;4.364;2023-01-30T17:29:31;8.20;99.90
23079;DHT22;11707;50.830;4.364;2023-01-30T17:32:00;8.20;99.90
23079;DHT22;11707;50.830;4.364;2023-01-30T17:34:25;8.20;99.90
23079;DHT22;11707;50.830;4.364;2023-01-30T17:36:52;8.30;99.90
23079;DHT22;11707;50.830;4.364;2023-01-30T17:39:20;8.20;99.90
23079;DHT22;11707;50.830;4.364;2023-01-30T17:41:47;8.20;99.90
23079;DHT22;11707;50.830;4.364;2023-01-30T17:44:13;8.20;99.90
23079;DHT22;11707;50.830;4.364;2023-01-30T17:46:43;8.20;99.90
23079;DHT22;11707;50.830;4.364;2023-01-30T17:49:20;8.20;99.90
23079;DHT22;11707;50.830;4.364;2023-01-30T17:51:46;8.20;99.90
23079;DHT22;11707;50.830;4.364;2023-01-30T17:54:13;8.00;99.90
23079;DHT22;11707;50.830;4.364;2023-01-30T17:56:42;7.90;99.90
23079;DHT22;11707;50.830;4.364;2023-01-30T17:59:14;7.90;99.90
23079;DHT22;11707;50.830;4.364;2023-01-30T18:01:47;8.00;99.90
23079;DHT22;11707;50.830;4.364;2023-01-30T18:04:13;8.00;99.90
23079;DHT22;11707;50.830;4.364;2023-01-30T18:06:42;8.00;99.90
23079;DHT22;11707;50.830;4.364;2023-01-30T18:09:20;8.00;99.90
23079;DHT22;11707;50.830;4.364;2023-01-30T18:11:47;8.20;99.90
23079;DHT22;11707;50.830;4.364;2023-01-30T18:14:14;8.20;99.90
23079;DHT22;11707;50.830;4.364;2023-01-30T18:16:40;8.30;99.90
23079;DHT22;11707;50.830;4.364;2023-01-30T18:19:09;8.40;99.90
23079;DHT22;11707;50.830;4.364;2023-01-30T18:21:36;8.30;99.90
23079;DHT22;11707;50.830;4.364;2023-01-30T18:24:03;8.20;99.90
23079;DHT22;11707;50.830;4.364;2023-01-30T18:26:29;8.20;99.90
23079;DHT22;11707;50.830;4.364;2023-01-30T18:28:55;8.10;99.90
23079;DHT22;11707;50.830;4.364;2023-01-30T18:31:21;8.00;99.90
23079;DHT22;11707;50.830;4.364;2023-01-30T18:33:50;8.00;99.90
23079;DHT22;11707;50.830;4.364;2023-01-30T18:36:19;8.10;99.90
23079;DHT22;11707;50.830;4.364;2023-01-30T18:38:45;8.20;99.90
23079;DHT22;11707;50.830;4.364;2023-01-30T18:41:16;8.20;99.90
23079;DHT22;11707;50.830;4.364;2023-01-30T18:43:43;8.30;99.90
23079;DHT22;11707;50.830;4.364;2023-01-30T18:46:14;8.30;99.90
23079;DHT22;11707;50.830;4.364;2023-01-30T18:48:40;8.30;99.90
23079;DHT22;11707;50.830;4.364;2023-01-30T18:51:11;8.30;99.90
23079;DHT22;11707;50.830;4.364;2023-01-30T18:53:38;8.20;99.90
23079;DHT22;11707;50.830;4.364;2023-01-30T18:56:06;8.10;99.90
23079;DHT22;11707;50.830;4.364;2023-01-30T18:58:33;8.00;99.90
23079;DHT22;11707;50.830;4.364;2023-01-30T19:01:06;7.90;99.90
23079;DHT22;11707;50.830;4.364;2023-01-30T19:03:33;8.00;99.90
23079;DHT22;11707;50.830;4.364;2023-01-30T19:06:00;7.90;99.90
23079;DHT22;11707;50.830;4.364;2023-01-30T19:08:26;7.80;99.90
23079;DHT22;11707;50.830;4.364;2023-01-30T19:10:52;7.90;99.90
23079;DHT22;11707;50.830;4.364;2023-01-30T19:13:17;7.90;99.90
23079;DHT22;11707;50.830;4.364;2023-01-30T19:16:00;7.90;99.90
23079;DHT22;11707;50.830;4.364;2023-01-30T19:18:28;7.90;99.90
23079;DHT22;11707;50.830;4.364;2023-01-30T19:20:57;7.90;99.90
23079;DHT22;11707;50.830;4.364;2023-01-30T19:23:28;7.90;99.90
23079;DHT22;11707;50.830;4.364;2023-01-30T19:25:55;7.70;99.90
23079;DHT22;11707;50.830;4.364;2023-01-30T19:28:21;7.70;99.90
23079;DHT22;11707;50.830;4.364;2023-01-30T19:30:48;7.70;99.90
23079;DHT22;11707;50.830;4.364;2023-01-30T19:33:14;7.70;99.90
23079;DHT22;11707;50.830;4.364;2023-01-30T19:35:40;7.70;99.90
23079;DHT22;11707;50.830;4.364;2023-01-30T19:38:09;7.60;99.90
23079;DHT22;11707;50.830;4.364;2023-01-30T19:40:45;7.50;99.90
23079;DHT22;11707;50.830;4.364;2023-01-30T19:43:12;7.50;99.90
23079;DHT22;11707;50.830;4.364;2023-01-30T19:45:40;7.50;99.90
23079;DHT22;11707;50.830;4.364;2023-01-30T19:48:08;7.40;99.90
23079;DHT22;11707;50.830;4.364;2023-01-30T19:50:35;7.30;99.90
23079;DHT22;11707;50.830;4.364;2023-01-30T19:53:01;7.30;99.90
23079;DHT22;11707;50.830;4.364;2023-01-30T19:55:27;7.30;99.90
23079;DHT22;11707;50.830;4.364;2023-01-30T19:57:56;7.30;99.90
23079;DHT22;11707;50.830;4.364;2023-01-30T20:00:22;7.20;99.90
23079;DHT22;11707;50.830;4.364;2023-01-30T20:02:49;7.10;99.90
23079;DHT22;11707;50.830;4.364;2023-01-30T20:05:15;7.10;99.90
23079;DHT22;11707;50.830;4.364;2023-01-30T20:07:41;7.10;99.90
23079;DHT22;11707;50.830;4.364;2023-01-30T20:10:08;7.00;99.90
23079;DHT22;11707;50.830;4.364;2023-01-30T20:12:34;7.10;99.90
23079;DHT22;11707;50.830;4.364;2023-01-30T20:15:00;7.00;99.90
23079;DHT22;11707;50.830;4.364;2023-01-30T20:17:27;7.00;99.90
23079;DHT22;11707;50.830;4.364;2023-01-30T20:19:53;6.90;99.90
23079;DHT22;11707;50.830;4.364;2023-01-30T20:22:19;6.90;99.90
23079;DHT22;11707;50.830;4.364;2023-01-30T20:24:46;6.90;99.90
23079;DHT22;11707;50.830;4.364;2023-01-30T20:27:12;6.90;99.90
23079;DHT22;11707;50.830;4.364;2023-01-30T20:29:38;6.80;99.90
23079;DHT22;11707;50.830;4.364;2023-01-30T20:32:04;7.00;99.90
23079;DHT22;11707;50.830;4.364;2023-01-30T20:34:30;6.90;99.90
23079;DHT22;11707;50.830;4.364;2023-01-30T20:36:55;6.90;99.90
23079;DHT22;11707;50.830;4.364;2023-01-30T20:39:21;6.80;99.90
23079;DHT22;11707;50.830;4.364;2023-01-30T20:41:47;6.80;99.90
23079;DHT22;11707;50.830;4.364;2023-01-30T20:44:13;6.90;99.90
23079;DHT22;11707;50.830;4.364;2023-01-30T20:46:41;6.80;99.90
23079;DHT22;11707;50.830;4.364;2023-01-30T20:49:13;6.80;99.90
23079;DHT22;11707;50.830;4.364;2023-01-30T20:51:39;6.90;99.90
23079;DHT22;11707;50.830;4.364;2023-01-30T20:54:07;6.70;99.90
23079;DHT22;11707;50.830;4.364;2023-01-30T20:56:39;6.60;99.90
23079;DHT22;11707;50.830;4.364;2023-01-30T20:59:08;6.50;99.90
23079;DHT22;11707;50.830;4.364;2023-01-30T21:01:34;6.50;99.90
23079;DHT22;11707;50.830;4.364;2023-01-30T21:04:04;6.50;99.90
23079;DHT22;11707;50.830;4.364;2023-01-30T21:06:31;6.50;99.90
23079;DHT22;11707;50.830;4.364;2023-01-30T21:08:58;6.50;99.90
23079;DHT22;11707;50.830;4.364;2023-01-30T21:11:24;6.50;99.90
23079;DHT22;11707;50.830;4.364;2023-01-30T21:13:49;6.60;99.90
23079;DHT22;11707;50.830;4.364;2023-01-30T21:16:23;6.50;99.90
23079;DHT22;11707;50.830;4.364;2023-01-30T21:18:51;6.50;99.90
23079;DHT22;11707;50.830;4.364;2023-01-30T21:21:29;6.50;99.90
23079;DHT22;11707;50.830;4.364;2023-01-30T21:23:58;6.50;99.90
23079;DHT22;11707;50.830;4.364;2023-01-30T21:26:27;6.50;99.90
23079;DHT22;11707;50.830;4.364;2023-01-30T21:28:53;6.30;99.90
23079;DHT22;11707;50.830;4.364;2023-01-30T21:31:22;6.40;99.90
23079;DHT22;11707;50.830;4.364;2023-01-30T21:33:48;6.40;99.90
23079;DHT22;11707;50.830;4.364;2023-01-30T21:36:15;6.40;99.90
23079;DHT22;11707;50.830;4.364;2023-01-30T21:38:41;6.40;99.90
23079;DHT22;11707;50.830;4.364;2023-01-30T21:41:28;6.40;99.90
23079;DHT22;11707;50.830;4.364;2023-01-30T21:44:14;6.30;99.90
23079;DHT22;11707;50.830;4.364;2023-01-30T21:46:43;6.40;99.90
23079;DHT22;11707;50.830;4.364;2023-01-30T21:49:10;6.40;99.90
23079;DHT22;11707;50.830;4.364;2023-01-30T21:51:39;6.30;99.90
23079;DHT22;11707;50.830;4.364;2023-01-30T21:54:05;6.40;99.90
23079;DHT22;11707;50.830;4.364;2023-01-30T21:56:31;6.40;99.90
23079;DHT22;11707;50.830;4.364;2023-01-30T21:58:58;6.40;99.90
23079;DHT22;11707;50.830;4.364;2023-01-30T22:01:25;6.40;99.90
23079;DHT22;11707;50.830;4.364;2023-01-30T22:03:51;6.40;99.90
23079;DHT22;11707;50.830;4.364;2023-01-30T22:06:17;6.60;99.90
23079;DHT22;11707;50.830;4.364;2023-01-30T22:08:43;6.80;99.90
23079;DHT22;11707;50.830;4.364;2023-01-30T22:11:11;6.70;99.90
23079;DHT22;11707;50.830;4.364;2023-01-30T22:13:39;6.60;99.90
23079;DHT22;11707;50.830;4.364;2023-01-30T22:16:08;6.60;99.90
23079;DHT22;11707;50.830;4.364;2023-01-30T22:18:34;6.60;99.90
23079;DHT22;11707;50.830;4.364;2023-01-30T22:21:11;6.70;99.90
23079;DHT22;11707;50.830;4.364;2023-01-30T22:23:43;6.60;99.90
23079;DHT22;11707;50.830;4.364;2023-01-30T22:26:11;6.70;99.90
23079;DHT22;11707;50.830;4.364;2023-01-30T22:28:37;6.80;99.90
23079;DHT22;11707;50.830;4.364;2023-01-30T22:33:34;6.80;99.90
23079;DHT22;11707;50.830;4.364;2023-01-30T22:36:02;6.60;99.90
23079;DHT22;11707;50.830;4.364;2023-01-30T22:38:28;6.50;99.90
23079;DHT22;11707;50.830;4.364;2023-01-30T22:41:02;6.50;99.90
23079;DHT22;11707;50.830;4.364;2023-01-30T22:43:29;6.60;99.90
23079;DHT22;11707;50.830;4.364;2023-01-30T22:46:08;6.60;99.90
23079;DHT22;11707;50.830;4.364;2023-01-30T22:48:35;6.70;99.90
23079;DHT22;11707;50.830;4.364;2023-01-30T22:51:14;6.80;99.90
23079;DHT22;11707;50.830;4.364;2023-01-30T22:53:50;6.80;99.90
23079;DHT22;11707;50.830;4.364;2023-01-30T22:56:18;6.80;99.90
23079;DHT22;11707;50.830;4.364;2023-01-30T22:58:45;6.70;99.90
23079;DHT22;11707;50.830;4.364;2023-01-30T23:03:42;6.50;99.90
23079;DHT22;11707;50.830;4.364;2023-01-30T23:06:10;6.40;99.90
23079;DHT22;11707;50.830;4.364;2023-01-30T23:08:38;6.40;99.90
23079;DHT22;11707;50.830;4.364;2023-01-30T23:11:18;6.40;99.90
23079;DHT22;11707;50.830;4.364;2023-01-30T23:13:47;6.20;99.90
23079;DHT22;11707;50.830;4.364;2023-01-30T23:16:14;6.30;99.90
23079;DHT22;11707;50.830;4.364;2023-01-30T23:18:41;6.40;99.90
23079;DHT22;11707;50.830;4.364;2023-01-30T23:21:44;6.50;99.90
23079;DHT22;11707;50.830;4.364;2023-01-30T23:24:13;6.50;99.90
23079;DHT22;11707;50.830;4.364;2023-01-30T23:26:41;6.50;99.90
23079;DHT22;11707;50.830;4.364;2023-01-30T23:29:09;6.50;99.90
23079;DHT22;11707;50.830;4.364;2023-01-30T23:31:38;6.30;99.90
23079;DHT22;11707;50.830;4.364;2023-01-30T23:34:06;6.30;99.90
23079;DHT22;11707;50.830;4.364;2023-01-30T23:36:33;6.20;99.90
23079;DHT22;11707;50.830;4.364;2023-01-30T23:39:00;6.30;99.90
23079;DHT22;11707;50.830;4.364;2023-01-30T23:41:30;6.40;99.90
23079;DHT22;11707;50.830;4.364;2023-01-30T23:43:57;6.20;99.90
23079;DHT22;11707;50.830;4.364;2023-01-30T23:46:30;6.20;99.90
23079;DHT22;11707;50.830;4.364;2023-01-30T23:48:57;6.20;99.90
23079;DHT22;11707;50.830;4.364;2023-01-30T23:51:27;6.30;99.90
23079;DHT22;11707;50.830;4.364;2023-01-30T23:53:54;6.30;99.90
23079;DHT22;11707;50.830;4.364;2023-01-30T23:56:22;6.20;99.90
23079;DHT22;11707;50.830;4.364;2023-01-30T23:58:48;6.30;99.90
